createdAt,value
2024-04-12T00:01:46.202Z,11.80
2024-04-12T00:04:17.020Z,7.90
2024-04-12T00:06:50.751Z,9.60
2024-04-12T00:09:19.446Z,9.40
2024-04-12T00:11:53.037Z,8.60
2024-04-12T00:14:23.061Z,8.10
2024-04-12T00:16:53.186Z,13.40
2024-04-12T00:19:23.625Z,7.60
2024-04-12T00:22:00.739Z,9.20
2024-04-12T00:24:30.795Z,10.60
2024-04-12T00:26:59.960Z,9.20
2024-04-12T00:29:37.785Z,8.80
2024-04-12T00:32:19.760Z,11.40
2024-04-12T00:34:49.372Z,11.40
2024-04-12T00:37:18.914Z,9.30
2024-04-12T00:39:49.291Z,9.50
2024-04-12T00:42:26.966Z,9.10
2024-04-12T00:44:55.842Z,10.80
2024-04-12T00:47:24.186Z,14.10
2024-04-12T00:49:52.585Z,11.30
2024-04-12T00:52:24.236Z,14.00
2024-04-12T00:55:03.926Z,11.10
2024-04-12T00:57:41.370Z,11.90
2024-04-12T01:00:13.883Z,10.30
2024-04-12T01:02:44.160Z,9.60
2024-04-12T01:05:18.262Z,10.00
2024-04-12T01:07:51.825Z,11.60
2024-04-12T01:10:41.888Z,9.20
2024-04-12T01:13:12.984Z,8.60
2024-04-12T01:15:40.636Z,8.30
2024-04-12T01:18:16.257Z,10.70
2024-04-12T01:20:44.644Z,9.40
2024-04-12T01:23:16.809Z,9.60
2024-04-12T01:25:46.315Z,7.40
2024-04-12T01:28:17.131Z,9.50
2024-04-12T01:30:47.243Z,7.20
2024-04-12T01:33:15.216Z,8.30
2024-04-12T01:35:46.676Z,8.50
2024-04-12T01:38:19.196Z,10.80
2024-04-12T01:40:59.975Z,7.40
2024-04-12T01:43:29.566Z,6.80
2024-04-12T01:45:57.677Z,8.60
2024-04-12T01:48:26.214Z,10.90
2024-04-12T01:50:54.447Z,9.90
2024-04-12T01:55:05.609Z,10.80
2024-04-12T01:57:33.970Z,6.80
2024-04-12T02:00:04.159Z,9.20
2024-04-12T02:02:33.823Z,8.20
2024-04-12T02:05:01.664Z,8.00
2024-04-12T02:14:52.111Z,8.70
2024-04-12T02:17:19.873Z,6.60
2024-04-12T02:19:48.438Z,10.50
2024-04-12T02:22:16.307Z,8.90
2024-04-12T02:24:45.596Z,7.60
2024-04-12T02:27:13.396Z,9.40
2024-04-12T02:29:42.585Z,7.90
2024-04-12T02:32:10.698Z,8.00
2024-04-12T02:34:38.532Z,8.20
2024-04-12T02:37:07.858Z,9.50
2024-04-12T02:39:41.675Z,9.00
2024-04-12T02:42:14.669Z,10.50
2024-04-12T02:44:42.701Z,8.60
2024-04-12T02:47:10.576Z,12.00
2024-04-12T02:49:41.331Z,13.40
2024-04-12T02:54:37.217Z,8.70
2024-04-12T02:57:05.099Z,9.10
2024-04-12T02:59:33.773Z,8.80
2024-04-12T03:02:01.657Z,13.40
2024-04-12T03:04:29.495Z,12.10
2024-04-12T03:06:57.165Z,12.70
2024-04-12T03:09:28.896Z,10.70
2024-04-12T03:11:57.009Z,9.10
2024-04-12T03:14:25.354Z,9.30
2024-04-12T03:16:53.140Z,12.60
2024-04-12T03:19:20.987Z,8.20
2024-04-12T03:21:52.674Z,11.90
2024-04-12T03:24:21.193Z,11.10
2024-04-12T03:26:50.189Z,10.50
2024-04-12T03:29:18.774Z,10.80
2024-04-12T03:31:48.915Z,7.70
2024-04-12T03:34:17.503Z,9.20
2024-04-12T03:36:48.526Z,12.80
2024-04-12T03:39:23.125Z,12.30
2024-04-12T03:41:59.083Z,11.00
2024-04-12T03:44:32.359Z,10.70
2024-04-12T03:47:09.034Z,11.80
2024-04-12T03:49:42.071Z,12.90
2024-04-12T03:52:16.622Z,14.10
2024-04-12T03:54:47.616Z,12.80
2024-04-12T03:57:17.492Z,12.30
2024-04-12T03:59:46.695Z,13.00
2024-04-12T04:02:17.593Z,10.50
2024-04-12T04:07:17.824Z,12.40
2024-04-12T04:09:47.408Z,13.70
2024-04-12T04:12:19.197Z,13.60
2024-04-12T04:14:51.203Z,14.60
2024-04-12T04:17:31.656Z,15.20
2024-04-12T04:20:07.312Z,12.10
2024-04-12T04:22:35.712Z,16.90
2024-04-12T04:25:09.697Z,13.00
2024-04-12T04:27:39.343Z,16.60
2024-04-12T04:30:08.371Z,15.00
2024-04-12T04:32:37.217Z,12.40
2024-04-12T04:35:10.662Z,13.80
2024-04-12T04:37:40.371Z,12.20
2024-04-12T04:40:18.820Z,13.10
2024-04-12T04:42:49.234Z,10.00
2024-04-12T04:45:22.521Z,13.60
2024-04-12T04:47:50.563Z,9.50
2024-04-12T04:50:21.035Z,12.40
2024-04-12T04:55:19.998Z,12.10
2024-04-12T04:57:56.433Z,12.30
2024-04-12T05:00:26.002Z,12.70
2024-04-12T05:02:55.687Z,10.00
2024-04-12T05:05:26.917Z,11.60
2024-04-12T05:07:57.542Z,12.10
2024-04-12T05:10:27.253Z,14.60
2024-04-12T05:12:55.911Z,11.00
2024-04-12T05:15:42.404Z,14.50
2024-04-12T05:18:14.991Z,15.10
2024-04-12T05:20:45.249Z,10.80
2024-04-12T05:23:17.262Z,12.80
2024-04-12T05:25:45.483Z,10.40
2024-04-12T05:28:14.167Z,10.40
2024-04-12T05:30:44.523Z,16.90
2024-04-12T05:33:14.128Z,13.60
2024-04-12T05:35:42.609Z,14.30
2024-04-12T05:38:11.334Z,13.80
2024-04-12T05:40:43.079Z,13.70
2024-04-12T05:43:17.856Z,13.60
2024-04-12T05:45:51.099Z,12.80
2024-04-12T05:48:23.030Z,11.10
2024-04-12T05:50:55.242Z,9.70
2024-04-12T05:53:34.903Z,9.70
2024-04-12T05:56:22.438Z,9.40
2024-04-12T05:58:52.773Z,14.00
2024-04-12T06:01:26.344Z,11.00
2024-04-12T06:03:56.414Z,11.40
2024-04-12T06:06:25.541Z,13.00
2024-04-12T06:08:55.035Z,13.40
2024-04-12T06:11:26.547Z,12.10
2024-04-12T06:13:56.510Z,11.00
2024-04-12T06:16:26.131Z,8.70
2024-04-12T06:18:59.733Z,12.10
2024-04-12T06:21:32.733Z,14.50
2024-04-12T06:24:01.301Z,11.40
2024-04-12T06:26:29.307Z,10.70
2024-04-12T06:29:04.604Z,13.00
2024-04-12T06:31:36.053Z,12.30
2024-04-12T06:34:11.827Z,9.00
2024-04-12T06:36:47.170Z,9.10
2024-04-12T06:39:16.330Z,17.00
2024-04-12T06:41:46.918Z,10.80
2024-04-12T06:44:20.669Z,9.80
2024-04-12T06:46:53.459Z,13.10
2024-04-12T06:49:28.780Z,12.50
2024-04-12T06:52:10.299Z,11.50
2024-04-12T06:54:46.512Z,8.70
2024-04-12T06:57:23.617Z,8.70
2024-04-12T06:59:56.415Z,10.50
2024-04-12T07:02:30.777Z,8.60
2024-04-12T07:04:59.370Z,13.50
2024-04-12T07:07:29.940Z,7.40
2024-04-12T07:10:10.873Z,8.10
2024-04-12T07:12:39.678Z,10.20
2024-04-12T07:15:11.592Z,8.00
2024-04-12T07:17:40.984Z,8.30
2024-04-12T07:20:14.942Z,9.60
2024-04-12T07:22:43.159Z,6.80
2024-04-12T07:25:11.305Z,6.70
2024-04-12T07:27:42.796Z,9.20
2024-04-12T07:30:12.466Z,9.80
2024-04-12T07:32:40.628Z,7.40
2024-04-12T07:35:26.442Z,4.90
2024-04-12T07:38:04.161Z,8.50
2024-04-12T07:40:36.106Z,9.60
2024-04-12T07:43:14.742Z,8.60
2024-04-12T07:45:44.880Z,8.40
2024-04-12T07:48:22.015Z,7.00
2024-04-12T07:51:01.604Z,5.20
2024-04-12T07:53:32.051Z,7.00
2024-04-12T07:56:02.292Z,7.60
2024-04-12T07:58:35.879Z,5.50
2024-04-12T08:01:11.449Z,6.40
2024-04-12T08:03:40.824Z,8.00
2024-04-12T08:06:38.549Z,5.10
2024-04-12T08:09:22.262Z,4.20
2024-04-12T08:12:00.677Z,5.40
2024-04-12T08:14:29.808Z,5.30
2024-04-12T08:17:02.246Z,5.40
2024-04-12T08:19:46.924Z,5.90
2024-04-12T08:22:20.719Z,5.90
2024-04-12T08:24:50.931Z,5.20
2024-04-12T08:27:31.573Z,4.10
2024-04-12T08:32:29.831Z,8.20
2024-04-12T08:34:59.946Z,7.10
2024-04-12T08:37:38.827Z,6.30
2024-04-12T08:40:11.086Z,7.10
2024-04-12T08:42:40.905Z,6.70
2024-04-12T08:45:19.358Z,5.40
2024-04-12T08:47:58.581Z,7.00
2024-04-12T08:50:33.142Z,7.50
2024-04-12T08:53:13.932Z,9.50
2024-04-12T08:55:45.648Z,7.40
2024-04-12T08:58:22.535Z,6.30
2024-04-12T09:00:56.435Z,4.90
2024-04-12T09:03:28.147Z,7.10
2024-04-12T09:05:58.852Z,6.80
2024-04-12T09:08:32.254Z,7.20
2024-04-12T09:11:07.025Z,7.50
2024-04-12T09:13:36.704Z,5.30
2024-04-12T09:16:08.880Z,4.90
2024-04-12T09:18:48.190Z,6.20
2024-04-12T09:21:37.947Z,6.40
2024-04-12T09:24:11.708Z,9.30
2024-04-12T09:26:56.892Z,9.30
2024-04-12T09:29:29.330Z,10.10
2024-04-12T09:32:20.019Z,10.40
2024-04-12T09:34:57.089Z,9.60
2024-04-12T09:37:39.667Z,8.10
2024-04-12T09:40:13.995Z,11.00
2024-04-12T09:42:56.715Z,8.80
2024-04-12T09:45:29.548Z,9.80
2024-04-12T09:48:18.596Z,12.70
2024-04-12T09:51:05.278Z,8.00
2024-04-12T09:53:52.320Z,7.00
2024-04-12T09:56:39.848Z,7.30
2024-04-12T09:59:48.204Z,7.20
2024-04-12T10:02:40.039Z,5.60
2024-04-12T10:05:29.136Z,5.70
2024-04-12T10:08:35.807Z,4.50
2024-04-12T10:11:41.424Z,6.50
2024-04-12T10:14:28.450Z,8.30
2024-04-12T10:17:16.768Z,5.10
2024-04-12T10:20:16.716Z,7.10
2024-04-12T10:23:03.330Z,5.00
2024-04-12T10:25:55.411Z,6.30
2024-04-12T10:28:42.284Z,9.20
2024-04-12T10:31:33.863Z,5.00
2024-04-12T10:34:27.633Z,4.40
2024-04-12T10:37:14.785Z,5.90
2024-04-12T10:39:46.188Z,9.60
2024-04-12T10:42:14.842Z,5.10
2024-04-12T10:44:42.601Z,8.00
2024-04-12T10:47:13.979Z,6.80
2024-04-12T10:49:44.474Z,6.40
2024-04-12T10:52:15.087Z,7.40
2024-04-12T10:57:16.945Z,4.60
2024-04-12T10:59:44.850Z,3.80
2024-04-12T11:02:12.718Z,5.50
2024-04-12T11:05:00.941Z,4.80
2024-04-12T11:07:29.532Z,6.20
2024-04-12T11:10:00.190Z,4.30
2024-04-12T11:12:41.581Z,4.60
2024-04-12T11:15:25.552Z,4.30
2024-04-12T11:18:13.898Z,5.00
2024-04-12T11:21:07.318Z,6.40
2024-04-12T11:23:54.477Z,5.30
2024-04-12T11:26:41.039Z,4.50
2024-04-12T11:29:29.195Z,3.50
2024-04-12T11:31:58.501Z,2.50
2024-04-12T11:34:35.623Z,2.70
2024-04-12T11:37:07.518Z,3.80
2024-04-12T11:39:41.828Z,4.20
2024-04-12T11:42:20.169Z,2.20
2024-04-12T11:44:54.776Z,2.40
2024-04-12T11:47:25.115Z,3.70
2024-04-12T11:49:58.663Z,2.40
2024-04-12T11:52:27.482Z,3.60
2024-04-12T11:54:57.676Z,3.10
2024-04-12T11:57:31.198Z,3.10
2024-04-12T12:00:10.156Z,5.40
2024-04-12T12:02:44.386Z,3.20
2024-04-12T12:05:19.145Z,3.70
2024-04-12T12:07:48.349Z,2.30
2024-04-12T12:10:16.785Z,6.20
2024-04-12T12:12:45.269Z,3.40
2024-04-12T12:15:16.630Z,2.80
2024-04-12T12:17:49.191Z,2.80
2024-04-12T12:20:19.822Z,4.40
2024-04-12T12:25:17.338Z,4.20
2024-04-12T12:27:45.064Z,5.80
2024-04-12T12:30:15.841Z,3.60
2024-04-12T12:32:46.258Z,8.30
2024-04-12T12:35:20.501Z,3.70
2024-04-12T12:37:49.917Z,4.90
2024-04-12T12:40:24.194Z,4.00
2024-04-12T12:42:56.869Z,3.80
2024-04-12T12:45:25.982Z,2.90
2024-04-12T12:47:54.692Z,4.30
2024-04-12T12:50:25.515Z,3.40
2024-04-12T12:52:53.505Z,2.00
2024-04-12T12:55:24.657Z,3.50
2024-04-12T12:58:10.655Z,3.20
2024-04-12T13:00:45.728Z,3.00
2024-04-12T13:03:18.832Z,2.30
2024-04-12T13:05:49.977Z,5.20
2024-04-12T13:10:54.714Z,8.40
2024-04-12T13:13:27.670Z,3.30
2024-04-12T13:15:55.537Z,4.90
2024-04-12T13:18:29.152Z,2.70
2024-04-12T13:20:57.949Z,6.90
2024-04-12T13:23:26.868Z,5.80
2024-04-12T13:25:55.652Z,4.80
2024-04-12T13:28:24.948Z,3.10
2024-04-12T13:30:53.223Z,3.20
2024-04-12T13:33:20.993Z,4.20
2024-04-12T13:35:49.151Z,2.70
2024-04-12T13:38:17.284Z,2.50
2024-04-12T13:40:50.769Z,3.60
2024-04-12T13:43:18.904Z,1.90
2024-04-12T13:46:09.384Z,2.90
2024-04-12T13:48:56.704Z,2.50
2024-04-12T13:51:24.672Z,2.80
2024-04-12T13:53:52.777Z,2.40
2024-04-12T13:56:22.273Z,3.00
2024-04-12T13:58:53.267Z,3.70
2024-04-12T14:01:24.720Z,3.90
2024-04-12T14:04:05.339Z,1.30
2024-04-12T14:06:37.976Z,3.60
2024-04-12T14:09:10.971Z,3.40
2024-04-12T14:11:39.576Z,2.80
2024-04-12T14:14:08.016Z,2.00
2024-04-12T14:16:43.329Z,3.30
2024-04-12T14:19:21.540Z,2.20
2024-04-12T14:21:53.950Z,3.80
2024-04-12T14:24:42.499Z,3.40
2024-04-12T14:27:12.556Z,3.50
2024-04-12T14:29:40.715Z,4.00
2024-04-12T14:32:11.422Z,5.10
2024-04-12T14:34:44.861Z,5.30
2024-04-12T14:37:19.662Z,5.80
2024-04-12T14:39:47.834Z,5.00
2024-04-12T14:42:17.401Z,3.50
2024-04-12T14:44:45.528Z,3.70
2024-04-12T14:47:13.863Z,2.30
2024-04-12T14:49:42.522Z,3.10
2024-04-12T14:52:13.819Z,3.20
2024-04-12T14:54:41.530Z,3.20
2024-04-12T14:57:10.536Z,5.30
2024-04-12T14:59:39.068Z,2.30
2024-04-12T15:02:07.523Z,3.80
2024-04-12T15:04:54.546Z,3.50
2024-04-12T15:07:41.195Z,3.20
2024-04-12T15:10:27.753Z,3.90
2024-04-12T15:13:14.258Z,3.70
2024-04-12T15:16:00.794Z,4.60
2024-04-12T15:18:47.964Z,2.90
2024-04-12T15:21:34.901Z,1.80
2024-04-12T15:24:21.759Z,1.50
2024-04-12T15:27:08.434Z,2.10
2024-04-12T15:29:55.065Z,2.40
2024-04-12T15:32:41.638Z,5.00
2024-04-12T15:42:50.190Z,3.60
2024-04-12T15:45:36.882Z,4.20
2024-04-12T15:48:12.566Z,3.40
2024-04-12T15:50:41.708Z,6.50
2024-04-12T15:53:27.180Z,3.40
2024-04-12T15:55:55.514Z,2.80
2024-04-12T15:58:43.746Z,6.20
2024-04-12T16:01:42.124Z,4.80
2024-04-12T16:04:28.956Z,4.30
2024-04-12T16:07:15.690Z,5.60
2024-04-12T16:10:02.284Z,3.90
2024-04-12T16:12:30.833Z,5.40
2024-04-12T16:15:00.573Z,5.10
2024-04-12T16:17:29.832Z,3.80
2024-04-12T16:19:57.815Z,6.70
2024-04-12T16:22:28.430Z,5.70
2024-04-12T16:24:56.545Z,5.90
2024-04-12T16:27:25.172Z,4.60
2024-04-12T16:29:53.294Z,5.70
2024-04-12T16:32:21.334Z,5.50
2024-04-12T16:34:58.513Z,2.60
2024-04-12T16:37:26.446Z,4.20
2024-04-12T16:39:54.474Z,3.10
2024-04-12T16:42:22.531Z,3.10
2024-04-12T16:44:50.848Z,4.10
2024-04-12T16:47:18.616Z,4.70
2024-04-12T16:49:46.738Z,5.60
2024-04-12T16:52:15.375Z,5.60
2024-04-12T16:54:43.155Z,3.60
2024-04-12T16:57:12.819Z,5.80
2024-04-12T16:59:40.527Z,5.90
2024-04-12T17:02:08.874Z,5.40
2024-04-12T17:04:36.726Z,7.10
2024-04-12T17:07:04.708Z,5.60
2024-04-12T17:09:32.665Z,8.20
2024-04-12T17:12:00.452Z,4.90
2024-04-12T17:14:29.638Z,6.30
2024-04-12T17:16:57.489Z,5.00
2024-04-12T17:19:26.161Z,5.40
2024-04-12T17:21:54.740Z,3.80
2024-04-12T17:24:23.523Z,6.50
2024-04-12T17:26:53.441Z,6.40
2024-04-12T17:29:22.486Z,5.80
2024-04-12T17:31:51.209Z,5.80
2024-04-12T17:34:19.191Z,4.60
2024-04-12T17:36:47.379Z,7.50
2024-04-12T17:39:15.611Z,12.40
2024-04-12T17:41:43.401Z,5.70
2024-04-12T17:44:11.388Z,7.90
2024-04-12T17:46:39.333Z,6.80
2024-04-12T17:49:07.707Z,5.30
2024-04-12T17:51:35.805Z,7.60
2024-04-12T17:54:04.822Z,5.80
2024-04-12T17:56:34.373Z,5.40
2024-04-12T17:59:02.141Z,6.40
2024-04-12T18:01:31.842Z,8.30
2024-04-12T18:04:02.115Z,7.60
2024-04-12T18:06:30.172Z,8.00
2024-04-12T18:08:58.775Z,6.70
2024-04-12T18:11:28.282Z,6.50
2024-04-12T18:13:59.094Z,8.40
2024-04-12T18:16:27.449Z,10.30
2024-04-12T18:18:55.667Z,5.60
2024-04-12T18:21:23.834Z,9.20
2024-04-12T18:23:51.961Z,7.30
2024-04-12T18:26:20.567Z,6.70
2024-04-12T18:28:51.363Z,9.90
2024-04-12T18:33:47.855Z,8.00
2024-04-12T18:36:22.884Z,8.90
2024-04-12T18:39:11.052Z,11.10
2024-04-12T18:42:00.175Z,7.50
2024-04-12T18:44:48.008Z,8.30
2024-04-12T18:47:16.067Z,11.00
2024-04-12T18:49:45.541Z,13.80
2024-04-12T18:52:15.088Z,9.40
2024-04-12T18:54:43.279Z,11.30
2024-04-12T18:57:11.237Z,12.10
2024-04-12T18:59:39.054Z,11.60
2024-04-12T19:02:07.934Z,11.70
2024-04-12T19:04:36.274Z,11.50
2024-04-12T19:07:04.435Z,7.70
2024-04-12T19:09:32.924Z,10.50
2024-04-12T19:12:00.992Z,12.40
2024-04-12T19:14:28.906Z,13.70
2024-04-12T19:16:58.172Z,16.10
2024-04-12T19:19:26.704Z,26.20
2024-04-12T19:21:56.127Z,20.70
2024-04-12T19:24:24.045Z,23.40
2024-04-12T19:26:54.420Z,20.50
2024-04-12T19:29:25.476Z,14.10
2024-04-12T19:31:54.500Z,18.40
2024-04-12T19:34:22.375Z,11.20
2024-04-12T19:36:50.176Z,13.40
2024-04-12T19:39:19.080Z,11.80
2024-04-12T19:41:47.272Z,10.30
2024-04-12T19:44:16.187Z,12.40
2024-04-12T19:46:44.576Z,13.00
2024-04-12T19:49:12.522Z,12.00
2024-04-12T19:51:40.334Z,11.60
2024-04-12T19:54:08.482Z,13.20
2024-04-12T19:56:36.403Z,11.30
2024-04-12T19:59:04.392Z,9.80
2024-04-12T20:01:32.470Z,13.00
2024-04-12T20:04:00.196Z,12.40
2024-04-12T20:06:28.384Z,12.90
2024-04-12T20:08:56.607Z,14.10
2024-04-12T20:11:24.538Z,15.90
2024-04-12T20:13:52.505Z,11.70
2024-04-12T20:16:21.178Z,11.90
2024-04-12T20:18:49.513Z,12.10
2024-04-12T20:21:17.824Z,14.80
2024-04-12T20:23:46.099Z,12.50
2024-04-12T20:26:16.552Z,10.20
2024-04-12T20:31:20.702Z,10.30
2024-04-12T20:34:05.970Z,10.30
2024-04-12T20:36:38.511Z,11.60
2024-04-12T20:39:19.504Z,10.00
2024-04-12T20:41:50.912Z,12.20
2024-04-12T20:44:21.776Z,10.20
2024-04-12T20:46:51.905Z,14.40
2024-04-12T20:49:20.898Z,11.70
2024-04-12T20:51:50.501Z,11.80
2024-04-12T20:54:18.501Z,9.80
2024-04-12T20:56:50.305Z,11.40
2024-04-12T20:59:21.419Z,12.80
2024-04-12T21:01:51.264Z,10.40
2024-04-12T21:04:20.805Z,13.60
2024-04-12T21:06:53.486Z,10.80
2024-04-12T21:09:22.123Z,10.40
2024-04-12T21:11:52.296Z,14.20
2024-04-12T21:14:20.163Z,12.00
2024-04-12T21:16:48.023Z,10.90
2024-04-12T21:19:17.305Z,12.90
2024-04-12T21:21:44.992Z,12.50
2024-04-12T21:24:16.187Z,11.50
2024-04-12T21:26:45.183Z,12.10
2024-04-12T21:29:13.062Z,12.90
2024-04-12T21:31:41.154Z,12.30
2024-04-12T21:34:09.129Z,11.00
2024-04-12T21:36:39.354Z,12.00
2024-04-12T21:39:07.649Z,12.70
2024-04-12T21:41:36.505Z,12.50
2024-04-12T21:44:04.995Z,11.00
2024-04-12T21:46:32.839Z,11.10
2024-04-12T21:49:01.014Z,12.40
2024-04-12T21:51:30.262Z,12.30
2024-04-12T21:54:01.321Z,12.80
2024-04-12T21:56:31.998Z,17.20
2024-04-12T21:59:00.055Z,11.10
2024-04-12T22:01:28.216Z,13.40
2024-04-12T22:03:56.549Z,12.70
2024-04-12T22:06:24.635Z,11.40
2024-04-12T22:08:55.491Z,11.20
2024-04-12T22:11:24.809Z,12.30
2024-04-12T22:13:53.101Z,13.70
2024-04-12T22:16:21.239Z,12.60
2024-04-12T22:18:49.146Z,12.50
2024-04-12T22:21:18.019Z,13.60
2024-04-12T22:23:49.550Z,12.80
2024-04-12T22:26:20.238Z,11.00
2024-04-12T22:28:49.674Z,12.90
2024-04-12T22:31:19.443Z,12.10
2024-04-12T22:33:49.074Z,15.30
2024-04-12T22:36:20.754Z,13.50
2024-04-12T22:38:50.073Z,12.30
2024-04-12T22:41:18.788Z,11.30
2024-04-12T22:43:46.955Z,13.20
2024-04-12T22:46:15.995Z,12.10
2024-04-12T22:48:46.308Z,11.40
2024-04-12T22:51:25.505Z,13.60
2024-04-12T22:53:53.836Z,14.20
2024-04-12T22:56:25.328Z,14.00
2024-04-12T22:58:57.845Z,14.60
2024-04-12T23:01:28.156Z,12.30
2024-04-12T23:03:57.034Z,12.60
2024-04-12T23:06:25.013Z,11.80
2024-04-12T23:08:53.054Z,11.00
2024-04-12T23:11:21.184Z,13.80
2024-04-12T23:13:48.982Z,11.40
2024-04-12T23:16:16.785Z,11.80
2024-04-12T23:18:44.861Z,11.60
2024-04-12T23:21:12.996Z,12.20
2024-04-12T23:23:40.867Z,14.90
2024-04-12T23:26:08.516Z,13.80
2024-04-12T23:28:36.567Z,13.10
2024-04-12T23:31:04.813Z,11.80
2024-04-12T23:33:32.679Z,11.20
2024-04-12T23:36:00.672Z,14.00
2024-04-12T23:38:28.432Z,12.50
2024-04-12T23:40:56.128Z,12.50
2024-04-12T23:43:24.591Z,13.10
2024-04-12T23:45:52.463Z,11.80
2024-04-12T23:48:20.284Z,11.90
2024-04-12T23:50:47.976Z,13.20
2024-04-12T23:53:15.674Z,11.80
2024-04-12T23:55:43.416Z,12.20
2024-04-12T23:58:11.190Z,10.30
